createdAt,value
2017-02-27T00:00:31.866Z,9.45
2017-02-27T00:01:31.884Z,9.35
2017-02-27T00:02:31.934Z,9.47
2017-02-27T00:03:32.000Z,9.39
2017-02-27T00:04:31.996Z,9.35
2017-02-27T00:05:32.017Z,9.48
2017-02-27T00:06:32.059Z,9.5
2017-02-27T00:07:32.084Z,9.47
2017-02-27T00:08:32.115Z,9.44
2017-02-27T00:09:32.155Z,9.45
2017-02-27T00:10:32.195Z,9.38
2017-02-27T00:11:32.214Z,9.48
2017-02-27T00:12:32.230Z,9.41
2017-02-27T00:13:32.271Z,9.38
2017-02-27T00:14:32.293Z,9.35
2017-02-27T00:15:32.327Z,9.48
2017-02-27T00:16:32.359Z,9.42
2017-02-27T00:17:32.386Z,9.41
2017-02-27T00:18:32.412Z,9.44
2017-02-27T00:19:32.448Z,9.5
2017-02-27T00:20:32.486Z,9.5
2017-02-27T00:21:32.507Z,9.5
2017-02-27T00:22:32.533Z,9.47
2017-02-27T00:23:32.559Z,9.35
2017-02-27T00:24:32.605Z,9.35
2017-02-27T00:25:32.603Z,9.42
2017-02-27T00:26:32.655Z,9.39
2017-02-27T00:27:32.707Z,9.42
2017-02-27T00:28:32.717Z,9.47
2017-02-27T00:29:32.750Z,9.47
2017-02-27T00:30:32.777Z,9.52
2017-02-27T00:31:32.811Z,9.48
2017-02-27T00:32:32.836Z,9.48
2017-02-27T00:33:32.865Z,9.41
2017-02-27T00:34:32.896Z,9.39
2017-02-27T00:35:32.941Z,9.42
2017-02-27T00:36:32.964Z,9.38
2017-02-27T00:37:32.994Z,9.45
2017-02-27T00:38:33.018Z,9.39
2017-02-27T00:39:33.054Z,9.48
2017-02-27T00:40:33.084Z,9.48
2017-02-27T00:41:33.133Z,9.52
2017-02-27T00:42:33.150Z,9.52
2017-02-27T00:43:33.175Z,9.47
2017-02-27T00:44:33.200Z,9.53
2017-02-27T00:45:33.229Z,9.5
2017-02-27T00:46:33.263Z,9.5
2017-02-27T00:47:33.295Z,9.47
2017-02-27T00:48:33.328Z,9.48
2017-02-27T00:49:33.364Z,9.48
2017-02-27T00:50:33.379Z,9.52
2017-02-27T00:51:33.414Z,9.5
2017-02-27T00:52:33.446Z,9.45
2017-02-27T00:53:33.473Z,9.5
2017-02-27T00:54:33.501Z,9.48
2017-02-27T00:55:33.522Z,9.47
2017-02-27T00:56:33.571Z,9.44
2017-02-27T00:57:33.601Z,9.47
2017-02-27T00:58:33.628Z,9.41
2017-02-27T00:59:33.652Z,9.42
2017-02-27T01:00:33.694Z,9.37
2017-02-27T01:01:33.731Z,9.39
2017-02-27T01:02:33.747Z,9.42
2017-02-27T01:03:33.780Z,9.45
2017-02-27T01:04:33.811Z,9.42
2017-02-27T01:05:33.825Z,9.41
2017-02-27T01:06:33.879Z,9.42
2017-02-27T01:07:33.914Z,9.37
2017-02-27T01:08:33.906Z,9.39
2017-02-27T01:09:33.967Z,9.42
2017-02-27T01:10:33.987Z,9.45
2017-02-27T01:11:34.026Z,9.45
2017-02-27T01:12:34.063Z,9.39
2017-02-27T01:13:34.078Z,9.42
2017-02-27T01:14:34.125Z,9.38
2017-02-27T01:15:34.148Z,9.37
2017-02-27T01:16:34.171Z,9.42
2017-02-27T01:17:34.184Z,9.39
2017-02-27T01:18:34.251Z,9.38
2017-02-27T01:19:34.258Z,9.41
2017-02-27T01:20:34.291Z,9.37
2017-02-27T01:21:34.326Z,9.35
2017-02-27T01:22:34.334Z,9.38
2017-02-27T01:23:34.389Z,9.37
2017-02-27T01:24:34.418Z,9.34
2017-02-27T01:25:34.451Z,9.42
2017-02-27T01:26:34.475Z,9.41
2017-02-27T01:27:34.503Z,9.41
2017-02-27T01:28:34.551Z,9.37
2017-02-27T01:29:34.567Z,9.39
2017-02-27T01:30:34.602Z,9.42
2017-02-27T01:31:34.628Z,9.34
2017-02-27T01:32:34.652Z,9.38
2017-02-27T01:33:34.682Z,9.37
2017-02-27T01:34:34.720Z,9.3
2017-02-27T17:34:21.216Z,9.03
2017-02-27T17:35:21.275Z,9.05
2017-02-27T17:36:21.301Z,9.04
2017-02-27T17:37:21.325Z,9.09
2017-02-27T17:38:21.336Z,9.01
2017-02-27T17:39:21.400Z,9.09
2017-02-27T17:40:21.419Z,9.11
2017-02-27T17:41:21.445Z,9.12
2017-02-27T17:42:21.450Z,9.08
2017-02-27T17:43:21.523Z,9.12
2017-02-27T17:44:21.540Z,9.24
2017-02-27T17:45:21.570Z,9.11
2017-02-27T17:46:21.611Z,9.11
2017-02-27T17:47:21.620Z,9.19
2017-02-27T17:48:21.657Z,9.01
2017-02-27T17:49:21.698Z,9.12
2017-02-27T17:50:21.724Z,9.01
2017-02-27T17:51:21.751Z,8.98
2017-02-27T17:52:21.789Z,9.01
2017-02-27T17:53:21.795Z,9
2017-02-27T17:54:21.855Z,8.98
2017-02-27T17:55:21.877Z,8.85
2017-02-27T17:56:21.916Z,8.87
2017-02-27T17:57:21.945Z,8.76
2017-02-27T17:58:21.950Z,8.79
2017-02-27T17:59:21.991Z,8.86
2017-02-27T18:00:22.018Z,8.76
2017-02-27T18:01:22.073Z,8.77
2017-02-27T18:02:22.107Z,8.67
2017-02-27T18:03:22.128Z,8.62
2017-02-27T18:04:22.153Z,8.64
2017-02-27T18:05:22.186Z,8.64
2017-02-27T18:06:22.225Z,8.67
2017-02-27T18:07:22.256Z,8.58
2017-02-27T18:08:22.285Z,8.57
2017-02-27T18:09:22.301Z,8.53
2017-02-27T18:10:22.349Z,8.61
2017-02-27T18:11:22.373Z,8.53
2017-02-27T18:12:22.376Z,8.52
2017-02-27T18:13:22.410Z,8.52
2017-02-27T18:14:22.686Z,8.47
2017-02-27T18:15:22.700Z,8.52
2017-02-27T18:16:22.545Z,8.5
2017-02-27T18:17:22.576Z,8.44
2017-02-27T18:18:22.576Z,8.46
2017-02-27T18:19:22.636Z,8.43
2017-02-27T18:20:22.671Z,8.36
2017-02-27T18:21:22.663Z,8.29
2017-02-27T18:22:22.728Z,8.26
2017-02-27T18:23:22.755Z,8.28
2017-02-27T18:24:22.791Z,8.25
2017-02-27T18:25:22.829Z,8.26
2017-02-27T18:26:22.819Z,8.26
2017-02-27T18:27:22.845Z,8.26
2017-02-27T18:28:22.885Z,8.25
2017-02-27T18:29:22.920Z,8.35
2017-02-27T18:30:22.949Z,8.29
2017-02-27T18:31:22.951Z,8.34
2017-02-27T18:32:22.996Z,8.35
2017-02-27T18:33:23.043Z,8.28
2017-02-27T18:34:23.073Z,8.35
2017-02-27T18:35:23.083Z,8.34
2017-02-27T18:36:23.141Z,8.25
2017-02-27T18:37:23.163Z,8.24
2017-02-27T18:38:23.406Z,8.22
2017-02-27T18:39:23.212Z,8.16
2017-02-27T18:40:23.461Z,8.17
2017-02-27T18:41:23.287Z,8.07
2017-02-27T18:42:23.773Z,8.06
2017-02-27T18:43:23.372Z,8.01
2017-02-27T18:44:23.392Z,7.89
2017-02-27T18:45:23.420Z,7.88
2017-02-27T18:46:23.446Z,7.82
2017-02-27T18:47:23.474Z,7.83
2017-02-27T18:48:23.525Z,7.77
2017-02-27T18:49:23.531Z,7.75
2017-02-27T18:50:23.552Z,7.74
2017-02-27T18:51:23.592Z,7.59
2017-02-27T18:52:23.617Z,7.58
2017-02-27T18:53:23.655Z,7.71
2017-02-27T18:54:23.663Z,7.61
2017-02-27T18:55:23.848Z,7.58
2017-02-27T18:56:23.754Z,7.58
2017-02-27T18:57:23.784Z,7.54
2017-02-27T18:58:23.805Z,7.61
2017-02-27T18:59:23.809Z,7.54
2017-02-27T19:00:24.025Z,7.55
2017-02-27T19:01:23.910Z,7.48
2017-02-27T19:02:23.938Z,7.45
2017-02-27T19:03:23.967Z,7.4
2017-02-27T19:04:23.985Z,7.33
2017-02-27T19:05:24.116Z,7.3
2017-02-27T19:06:24.119Z,7.29
2017-02-27T19:07:24.082Z,7.19
2017-02-27T19:08:24.105Z,7.09
2017-02-27T19:09:24.341Z,6.98
2017-02-27T19:10:24.164Z,7.05
2017-02-27T19:11:24.199Z,6.94
2017-02-27T19:12:24.219Z,7
2017-02-27T19:13:24.236Z,6.97
2017-02-27T19:14:24.317Z,6.86
2017-02-27T19:15:24.320Z,6.9
2017-02-27T19:16:24.375Z,7.03
2017-02-27T19:17:24.371Z,7.04
2017-02-27T19:18:24.411Z,7.03
2017-02-27T19:19:24.451Z,7.04
2017-02-27T19:20:24.450Z,6.95
2017-02-27T19:21:24.517Z,6.98
2017-02-27T19:22:24.527Z,6.98
2017-02-27T19:23:24.556Z,7.03
2017-02-27T19:24:24.606Z,7.01
2017-02-27T19:25:24.623Z,7
2017-02-27T19:26:24.638Z,6.98
2017-02-27T19:27:24.663Z,7.13
2017-02-27T19:28:24.696Z,7
2017-02-27T19:29:24.720Z,7.09
2017-02-27T19:30:24.767Z,7
2017-02-27T19:31:24.796Z,6.93
2017-02-27T19:32:24.807Z,7
2017-02-27T19:33:24.821Z,6.86
2017-02-27T19:34:24.860Z,6.78
2017-02-27T19:35:24.910Z,6.76
2017-02-27T19:36:24.956Z,6.73
2017-02-27T19:37:24.970Z,6.67
2017-02-27T19:38:25.015Z,6.7
2017-02-27T19:39:25.043Z,6.75
2017-02-27T19:40:25.044Z,6.67
2017-02-27T19:41:25.098Z,6.62
2017-02-27T19:42:25.127Z,6.61
2017-02-27T19:43:25.335Z,6.68
2017-02-27T19:44:25.194Z,6.72
2017-02-27T19:45:25.213Z,6.76
2017-02-27T19:46:25.395Z,6.83
2017-02-27T19:47:25.274Z,6.88
2017-02-27T19:48:25.318Z,6.88
2017-02-27T19:49:25.330Z,6.93
2017-02-27T19:50:25.369Z,6.9
2017-02-27T19:51:25.509Z,6.91
2017-02-27T19:52:25.426Z,6.94
2017-02-27T19:53:25.439Z,6.9
2017-02-27T19:54:25.472Z,6.86
2017-02-27T19:55:25.503Z,6.9
2017-02-27T19:56:25.668Z,7
2017-02-27T19:57:25.560Z,7
2017-02-27T19:58:25.597Z,7
2017-02-27T19:59:25.638Z,7.01
2017-02-27T20:00:25.609Z,7.05
2017-02-27T20:01:25.662Z,6.97
2017-02-27T20:02:25.719Z,6.9
2017-02-27T20:03:25.745Z,6.91
2017-02-27T20:04:25.762Z,6.76
2017-02-27T20:05:25.810Z,6.83
2017-02-27T20:06:25.783Z,6.88
2017-02-27T20:07:25.864Z,6.97
2017-02-27T20:08:25.869Z,7.03
2017-02-27T20:09:25.964Z,7.05
2017-02-27T20:10:25.971Z,7
2017-02-27T20:11:26.016Z,7
2017-02-27T20:12:26.011Z,7.03
2017-02-27T20:13:26.045Z,7.11
2017-02-27T20:14:26.245Z,7.05
2017-02-27T20:15:26.098Z,7.16
2017-02-27T20:16:26.125Z,7.11
2017-02-27T20:17:26.160Z,7.08
2017-02-27T20:18:26.201Z,7.03
2017-02-27T20:19:26.217Z,7.04
2017-02-27T20:20:26.242Z,7.05
2017-02-27T20:21:26.263Z,7.03
2017-02-27T20:22:26.269Z,7.04
2017-02-27T20:23:26.321Z,7.08
2017-02-27T20:24:26.371Z,7.13
2017-02-27T20:25:26.391Z,7
2017-02-27T20:26:26.443Z,7.12
2017-02-27T20:27:26.427Z,7.03
2017-02-27T20:28:26.518Z,7.04
2017-02-27T20:29:26.478Z,7.03
2017-02-27T20:30:26.548Z,7.03
2017-02-27T20:31:26.536Z,7.03
2017-02-27T20:32:26.596Z,7.08
2017-02-27T20:33:26.584Z,7
2017-02-27T20:34:26.638Z,6.94
2017-02-27T20:35:26.695Z,6.94
2017-02-27T20:36:26.686Z,7.03
2017-02-27T20:37:26.756Z,7
2017-02-27T20:38:26.766Z,6.94
2017-02-27T20:39:26.807Z,6.95
2017-02-27T20:40:27.029Z,7
2017-02-27T20:41:26.853Z,6.98
2017-02-27T20:42:26.868Z,7
2017-02-27T20:43:26.907Z,6.97
2017-02-27T20:44:26.925Z,7.01
2017-02-27T20:45:26.956Z,7.01
2017-02-27T20:46:27.002Z,7.13
2017-02-27T20:47:27.036Z,7.03
2017-02-27T20:48:27.065Z,7.11
2017-02-27T20:49:27.123Z,7.11
2017-02-27T20:50:27.116Z,7.12
2017-02-27T20:51:27.145Z,7.15
2017-02-27T20:52:27.167Z,7.22
2017-02-27T20:53:27.229Z,7.3
2017-02-27T20:54:27.242Z,7.33
2017-02-27T20:55:27.242Z,7.36
2017-02-27T20:56:27.307Z,7.33
2017-02-27T20:57:27.349Z,7.39
2017-02-27T20:58:27.362Z,7.4
2017-02-27T20:59:27.405Z,7.41
2017-02-27T21:00:27.412Z,7.44
2017-02-27T21:01:27.447Z,7.52
2017-02-27T21:02:27.480Z,7.54
2017-02-27T21:03:27.516Z,7.45
2017-02-27T21:04:27.502Z,7.48
2017-02-27T21:05:27.519Z,7.55
2017-02-27T21:06:27.570Z,7.56
2017-02-27T21:07:27.674Z,7.59
2017-02-27T21:08:27.649Z,7.63
2017-02-27T21:09:27.668Z,7.59
2017-02-27T21:10:27.900Z,7.59
2017-02-27T21:11:27.736Z,7.59
2017-02-27T21:12:27.756Z,7.63
2017-02-27T21:13:27.766Z,7.64
2017-02-27T21:14:27.819Z,7.64
2017-02-27T21:15:27.848Z,7.68
2017-02-27T21:16:27.874Z,7.71
2017-02-27T21:17:27.877Z,7.63
2017-02-27T21:18:27.953Z,7.52
2017-02-27T21:19:27.952Z,7.55
2017-02-27T21:20:28.009Z,7.56
2017-02-27T21:21:28.035Z,7.47
2017-02-27T21:22:28.065Z,7.45
2017-02-27T21:23:28.068Z,7.55
2017-02-27T21:24:28.114Z,7.55
2017-02-27T21:25:28.138Z,7.54
2017-02-27T21:26:28.163Z,7.54
2017-02-27T21:27:28.183Z,7.55
2017-02-27T21:28:28.214Z,7.56
2017-02-27T21:29:28.246Z,7.47
2017-02-27T21:30:28.291Z,7.58
2017-02-27T21:31:28.319Z,7.58
2017-02-27T21:32:28.344Z,7.54
2017-02-27T21:33:28.346Z,7.54
2017-02-27T21:34:28.403Z,7.47
2017-02-27T21:35:28.430Z,7.48
2017-02-27T21:36:28.469Z,7.47
2017-02-27T21:37:28.485Z,7.48
2017-02-27T21:38:28.500Z,7.56
2017-02-27T21:39:28.552Z,7.55
2017-02-27T21:40:28.556Z,7.54
2017-02-27T21:41:28.620Z,7.52
2017-02-27T21:42:28.646Z,7.56
2017-02-27T21:43:28.640Z,7.56
2017-02-27T21:44:28.694Z,7.68
2017-02-27T21:45:28.729Z,7.67
2017-02-27T21:46:28.737Z,7.73
2017-02-27T21:47:28.775Z,7.58
2017-02-27T21:48:28.776Z,7.67
2017-02-27T21:49:28.826Z,7.61
2017-02-27T21:50:28.846Z,7.73
2017-02-27T21:51:28.885Z,7.71
2017-02-27T21:52:28.942Z,7.7
2017-02-27T21:53:28.967Z,7.75
2017-02-27T21:54:28.981Z,7.75
2017-02-27T21:55:29.015Z,7.71
2017-02-27T21:56:29.056Z,7.73
2017-02-27T21:57:29.051Z,7.77
2017-02-27T21:58:29.126Z,7.73
2017-02-27T21:59:29.105Z,7.74
2017-02-27T22:00:29.149Z,7.73
2017-02-27T22:01:29.220Z,7.78
2017-02-27T22:02:29.220Z,7.74
2017-02-27T22:03:29.235Z,7.61
2017-02-27T22:04:29.296Z,7.71
2017-02-27T22:05:29.311Z,7.7
2017-02-27T22:06:29.334Z,7.63
2017-02-27T22:07:29.332Z,7.64
2017-02-27T22:08:29.380Z,7.56
2017-02-27T22:09:29.422Z,7.67
2017-02-27T22:10:29.467Z,7.58
2017-02-27T22:11:29.460Z,7.61
2017-02-27T22:12:29.504Z,7.63
2017-02-27T22:13:29.553Z,7.63
2017-02-27T22:14:29.730Z,7.61
2017-02-27T22:15:29.584Z,7.71
2017-02-27T22:16:29.640Z,7.74
2017-02-27T22:17:29.673Z,7.75
2017-02-27T22:18:29.660Z,7.73
2017-02-27T22:19:29.730Z,7.77
2017-02-27T22:20:29.752Z,7.77
2017-02-27T22:21:29.790Z,7.78
2017-02-27T22:22:29.821Z,7.83
2017-02-27T22:23:29.830Z,7.86
2017-02-27T22:24:30.041Z,7.86
2017-02-27T22:25:29.873Z,7.91
2017-02-27T22:26:29.908Z,7.83
2017-02-27T22:27:29.948Z,7.85
2017-02-27T22:28:29.956Z,7.93
2017-02-27T22:29:29.993Z,7.92
2017-02-27T22:30:30.022Z,7.91
2017-02-27T22:31:30.067Z,7.88
2017-02-27T22:32:30.121Z,7.82
2017-02-27T22:33:30.136Z,7.89
2017-02-27T22:34:30.148Z,7.86
2017-02-27T22:35:30.183Z,7.86
2017-02-27T22:36:30.200Z,7.95
2017-02-27T22:37:30.249Z,7.96
2017-02-27T22:38:30.252Z,7.88
2017-02-27T22:39:30.307Z,8.03
2017-02-27T22:40:30.335Z,7.98
2017-02-27T22:41:30.313Z,8.17
2017-02-27T22:42:30.366Z,8.29
2017-02-27T22:43:30.386Z,8.26
2017-02-27T22:44:30.475Z,8.31
2017-02-27T22:45:30.476Z,8.36
2017-02-27T22:46:30.503Z,8.46
2017-02-27T22:47:30.526Z,8.5
2017-02-27T22:48:30.542Z,8.6
2017-02-27T22:49:30.543Z,8.57
2017-02-27T22:50:30.624Z,8.62
2017-02-27T22:51:30.636Z,8.67
2017-02-27T22:52:30.660Z,8.72
2017-02-27T22:53:30.693Z,8.79
2017-02-27T22:54:30.757Z,8.86
2017-02-27T22:55:30.766Z,8.87
2017-02-27T22:56:30.815Z,8.95
2017-02-27T22:57:30.980Z,8.97
2017-02-27T22:58:31.046Z,9.03
2017-02-27T22:59:30.887Z,9.12
2017-02-27T23:00:30.902Z,9.05
2017-02-27T23:01:30.926Z,9.09
2017-02-27T23:02:30.982Z,9.17
2017-02-27T23:03:31.026Z,9.21
2017-02-27T23:04:31.024Z,9.23
2017-02-27T23:05:31.063Z,9.24
2017-02-27T23:06:31.062Z,9.24
2017-02-27T23:07:31.099Z,9.32
2017-02-27T23:08:31.155Z,9.3
2017-02-27T23:09:31.165Z,9.39
2017-02-27T23:10:31.212Z,9.35
2017-02-27T23:11:31.227Z,9.39
2017-02-27T23:12:31.264Z,9.41
2017-02-27T23:13:31.261Z,9.38
2017-02-27T23:14:31.314Z,9.38
2017-02-27T23:15:31.331Z,9.44
2017-02-27T23:16:31.387Z,9.41
2017-02-27T23:17:31.409Z,9.5
2017-02-27T23:18:31.442Z,9.52
2017-02-27T23:19:31.471Z,9.47
2017-02-27T23:20:31.478Z,9.45
2017-02-27T23:21:31.543Z,9.52
2017-02-27T23:22:31.556Z,9.48
2017-02-27T23:23:31.577Z,9.48
2017-02-27T23:24:31.611Z,9.45
2017-02-27T23:25:31.658Z,9.45
2017-02-27T23:26:31.681Z,9.47
2017-02-27T23:27:31.712Z,9.44
2017-02-27T23:28:31.733Z,9.55
2017-02-27T23:29:31.769Z,9.57
2017-02-27T23:30:31.803Z,9.48
2017-02-27T23:31:31.823Z,9.57
2017-02-27T23:32:31.857Z,9.53
2017-02-27T23:33:31.881Z,9.62
2017-02-27T23:34:31.922Z,9.6
2017-02-27T23:35:31.931Z,9.64
2017-02-27T23:36:31.970Z,9.67
2017-02-27T23:37:31.982Z,9.71
2017-02-27T23:38:32.024Z,9.64
2017-02-27T23:39:32.069Z,9.64
2017-02-27T23:40:32.072Z,9.72
2017-02-27T23:41:32.103Z,9.77
2017-02-27T23:42:32.151Z,9.74
2017-02-27T23:43:32.158Z,9.8
2017-02-27T23:44:32.228Z,9.78
2017-02-27T23:45:32.245Z,9.77
2017-02-27T23:46:32.274Z,9.77
2017-02-27T23:47:32.327Z,9.72
2017-02-27T23:48:32.325Z,9.78
2017-02-27T23:49:32.380Z,9.8
2017-02-27T23:50:32.391Z,9.72
2017-02-27T23:51:32.431Z,9.75
2017-02-27T23:52:32.466Z,9.78
2017-02-27T23:53:32.453Z,9.82
2017-02-27T23:54:32.506Z,9.82
2017-02-27T23:55:32.569Z,9.88
2017-02-27T23:56:32.580Z,9.78
2017-02-27T23:57:32.599Z,9.89
2017-02-27T23:58:32.626Z,9.85
2017-02-27T23:59:32.656Z,9.88
